sensor_id;sensor_type;location;lat;lon;timestamp;P1;durP1;ratioP1;P2;durP2;ratioP2
5454;SDS011;2750;49.050;9.250;2023-11-21T00:04:09;9.57;;;2.77;;
5454;SDS011;2750;49.050;9.250;2023-11-21T00:09:11;5.93;;;1.90;;
5454;SDS011;2750;49.050;9.250;2023-11-21T00:14:14;3.67;;;1.93;;
5454;SDS011;2750;49.050;9.250;2023-11-21T00:19:15;3.53;;;2.00;;
5454;SDS011;2750;49.050;9.250;2023-11-21T00:24:17;4.30;;;2.53;;
5454;SDS011;2750;49.050;9.250;2023-11-21T00:29:20;3.53;;;1.90;;
5454;SDS011;2750;49.050;9.250;2023-11-21T00:34:21;4.73;;;2.17;;
5454;SDS011;2750;49.050;9.250;2023-11-21T00:39:23;2.70;;;1.80;;
5454;SDS011;2750;49.050;9.250;2023-11-21T00:44:27;3.87;;;2.10;;
5454;SDS011;2750;49.050;9.250;2023-11-21T00:49:28;3.93;;;2.17;;
5454;SDS011;2750;49.050;9.250;2023-11-21T00:54:30;2.37;;;1.80;;
5454;SDS011;2750;49.050;9.250;2023-11-21T00:59:33;4.70;;;2.30;;
5454;SDS011;2750;49.050;9.250;2023-11-21T01:04:34;2.80;;;1.80;;
5454;SDS011;2750;49.050;9.250;2023-11-21T01:09:36;2.83;;;1.70;;
5454;SDS011;2750;49.050;9.250;2023-11-21T01:14:39;3.30;;;1.90;;
5454;SDS011;2750;49.050;9.250;2023-11-21T01:19:40;4.90;;;2.30;;
5454;SDS011;2750;49.050;9.250;2023-11-21T01:24:42;2.43;;;1.73;;
5454;SDS011;2750;49.050;9.250;2023-11-21T01:29:45;3.50;;;2.00;;
5454;SDS011;2750;49.050;9.250;2023-11-21T01:34:47;4.30;;;1.97;;
5454;SDS011;2750;49.050;9.250;2023-11-21T01:39:49;3.33;;;1.90;;
5454;SDS011;2750;49.050;9.250;2023-11-21T01:44:52;4.17;;;2.30;;
5454;SDS011;2750;49.050;9.250;2023-11-21T01:49:55;3.37;;;1.60;;
5454;SDS011;2750;49.050;9.250;2023-11-21T01:54:56;5.20;;;1.80;;
5454;SDS011;2750;49.050;9.250;2023-11-21T02:00:02;3.57;;;1.77;;
5454;SDS011;2750;49.050;9.250;2023-11-21T02:05:15;4.90;;;2.10;;
5454;SDS011;2750;49.050;9.250;2023-11-21T02:10:18;7.83;;;2.20;;
5454;SDS011;2750;49.050;9.250;2023-11-21T02:15:24;5.27;;;2.50;;
5454;SDS011;2750;49.050;9.250;2023-11-21T02:20:28;3.73;;;2.17;;
5454;SDS011;2750;49.050;9.250;2023-11-21T02:25:31;5.10;;;2.30;;
5454;SDS011;2750;49.050;9.250;2023-11-21T02:30:34;4.57;;;1.80;;
5454;SDS011;2750;49.050;9.250;2023-11-21T02:35:37;2.83;;;1.90;;
5454;SDS011;2750;49.050;9.250;2023-11-21T02:40:39;5.03;;;2.30;;
5454;SDS011;2750;49.050;9.250;2023-11-21T02:45:41;4.33;;;2.00;;
5454;SDS011;2750;49.050;9.250;2023-11-21T02:50:42;4.13;;;2.13;;
5454;SDS011;2750;49.050;9.250;2023-11-21T02:55:45;2.50;;;2.00;;
5454;SDS011;2750;49.050;9.250;2023-11-21T03:00:47;8.63;;;2.57;;
5454;SDS011;2750;49.050;9.250;2023-11-21T03:05:48;4.20;;;2.30;;
5454;SDS011;2750;49.050;9.250;2023-11-21T03:10:51;5.53;;;2.60;;
5454;SDS011;2750;49.050;9.250;2023-11-21T03:15:53;4.73;;;2.03;;
5454;SDS011;2750;49.050;9.250;2023-11-21T03:20:54;3.47;;;2.10;;
5454;SDS011;2750;49.050;9.250;2023-11-21T03:25:57;4.23;;;1.80;;
5454;SDS011;2750;49.050;9.250;2023-11-21T03:30:59;3.77;;;1.80;;
5454;SDS011;2750;49.050;9.250;2023-11-21T03:36:01;6.10;;;2.23;;
5454;SDS011;2750;49.050;9.250;2023-11-21T03:41:06;3.47;;;2.03;;
5454;SDS011;2750;49.050;9.250;2023-11-21T03:46:10;7.40;;;2.17;;
5454;SDS011;2750;49.050;9.250;2023-11-21T03:51:12;3.20;;;2.10;;
5454;SDS011;2750;49.050;9.250;2023-11-21T03:56:15;4.80;;;2.70;;
5454;SDS011;2750;49.050;9.250;2023-11-21T04:01:19;4.33;;;2.40;;
5454;SDS011;2750;49.050;9.250;2023-11-21T04:06:22;5.47;;;2.40;;
5454;SDS011;2750;49.050;9.250;2023-11-21T04:11:25;4.80;;;2.10;;
5454;SDS011;2750;49.050;9.250;2023-11-21T04:16:28;6.67;;;2.80;;
5454;SDS011;2750;49.050;9.250;2023-11-21T04:21:29;5.87;;;2.97;;
5454;SDS011;2750;49.050;9.250;2023-11-21T04:26:33;6.97;;;2.47;;
5454;SDS011;2750;49.050;9.250;2023-11-21T04:31:34;4.47;;;2.27;;
5454;SDS011;2750;49.050;9.250;2023-11-21T04:36:36;7.77;;;2.20;;
5454;SDS011;2750;49.050;9.250;2023-11-21T04:41:39;4.80;;;2.30;;
5454;SDS011;2750;49.050;9.250;2023-11-21T04:46:40;4.10;;;2.10;;
5454;SDS011;2750;49.050;9.250;2023-11-21T04:51:42;5.57;;;2.10;;
5454;SDS011;2750;49.050;9.250;2023-11-21T04:56:45;7.43;;;2.10;;
5454;SDS011;2750;49.050;9.250;2023-11-21T05:01:46;5.97;;;2.50;;
5454;SDS011;2750;49.050;9.250;2023-11-21T05:06:48;5.63;;;2.20;;
5454;SDS011;2750;49.050;9.250;2023-11-21T05:11:51;3.50;;;1.87;;
5454;SDS011;2750;49.050;9.250;2023-11-21T05:16:53;5.87;;;2.13;;
5454;SDS011;2750;49.050;9.250;2023-11-21T05:21:55;5.00;;;2.43;;
5454;SDS011;2750;49.050;9.250;2023-11-21T05:26:58;2.00;;;1.73;;
5454;SDS011;2750;49.050;9.250;2023-11-21T05:31:59;2.80;;;2.33;;
5454;SDS011;2750;49.050;9.250;2023-11-21T05:37:01;3.27;;;2.17;;
5454;SDS011;2750;49.050;9.250;2023-11-21T05:42:04;3.93;;;2.87;;
5454;SDS011;2750;49.050;9.250;2023-11-21T05:47:06;4.17;;;2.07;;
5454;SDS011;2750;49.050;9.250;2023-11-21T05:52:08;2.20;;;2.00;;
5454;SDS011;2750;49.050;9.250;2023-11-21T05:57:11;4.80;;;2.73;;
5454;SDS011;2750;49.050;9.250;2023-11-21T06:02:13;4.70;;;2.40;;
5454;SDS011;2750;49.050;9.250;2023-11-21T06:07:14;4.07;;;2.67;;
5454;SDS011;2750;49.050;9.250;2023-11-21T06:12:17;2.90;;;2.53;;
5454;SDS011;2750;49.050;9.250;2023-11-21T06:17:20;5.47;;;2.83;;
5454;SDS011;2750;49.050;9.250;2023-11-21T06:22:21;4.87;;;2.87;;
5454;SDS011;2750;49.050;9.250;2023-11-21T06:27:24;4.47;;;2.93;;
5454;SDS011;2750;49.050;9.250;2023-11-21T06:32:26;4.03;;;3.20;;
5454;SDS011;2750;49.050;9.250;2023-11-21T06:37:29;3.43;;;3.00;;
5454;SDS011;2750;49.050;9.250;2023-11-21T06:42:33;5.10;;;3.13;;
5454;SDS011;2750;49.050;9.250;2023-11-21T06:47:34;6.87;;;3.17;;
5454;SDS011;2750;49.050;9.250;2023-11-21T06:52:36;3.43;;;3.10;;
5454;SDS011;2750;49.050;9.250;2023-11-21T06:57:39;5.40;;;3.30;;
5454;SDS011;2750;49.050;9.250;2023-11-21T07:02:40;6.17;;;3.87;;
5454;SDS011;2750;49.050;9.250;2023-11-21T07:07:42;5.03;;;3.70;;
5454;SDS011;2750;49.050;9.250;2023-11-21T07:12:44;5.37;;;3.70;;
5454;SDS011;2750;49.050;9.250;2023-11-21T07:17:46;5.43;;;4.00;;
5454;SDS011;2750;49.050;9.250;2023-11-21T07:22:48;7.03;;;3.97;;
5454;SDS011;2750;49.050;9.250;2023-11-21T07:27:51;6.43;;;4.80;;
5454;SDS011;2750;49.050;9.250;2023-11-21T07:32:55;8.40;;;4.73;;
5454;SDS011;2750;49.050;9.250;2023-11-21T07:37:56;5.17;;;4.67;;
5454;SDS011;2750;49.050;9.250;2023-11-21T07:42:59;6.80;;;3.47;;
5454;SDS011;2750;49.050;9.250;2023-11-21T07:48:01;5.77;;;4.07;;
5454;SDS011;2750;49.050;9.250;2023-11-21T07:53:03;4.73;;;3.90;;
5454;SDS011;2750;49.050;9.250;2023-11-21T07:58:07;7.47;;;4.30;;
5454;SDS011;2750;49.050;9.250;2023-11-21T08:03:08;6.57;;;3.90;;
5454;SDS011;2750;49.050;9.250;2023-11-21T08:08:11;7.00;;;4.63;;
5454;SDS011;2750;49.050;9.250;2023-11-21T08:13:14;6.97;;;4.77;;
5454;SDS011;2750;49.050;9.250;2023-11-21T08:18:17;4.93;;;4.17;;
5454;SDS011;2750;49.050;9.250;2023-11-21T08:23:18;5.97;;;4.47;;
5454;SDS011;2750;49.050;9.250;2023-11-21T08:28:21;5.00;;;3.87;;
5454;SDS011;2750;49.050;9.250;2023-11-21T08:33:25;4.03;;;3.67;;
5454;SDS011;2750;49.050;9.250;2023-11-21T08:38:27;7.13;;;4.13;;
5454;SDS011;2750;49.050;9.250;2023-11-21T08:43:30;3.73;;;3.30;;
5454;SDS011;2750;49.050;9.250;2023-11-21T08:48:32;3.70;;;3.37;;
5454;SDS011;2750;49.050;9.250;2023-11-21T08:53:33;5.57;;;3.57;;
5454;SDS011;2750;49.050;9.250;2023-11-21T08:58:37;5.40;;;4.43;;
5454;SDS011;2750;49.050;9.250;2023-11-21T09:03:38;4.90;;;4.00;;
5454;SDS011;2750;49.050;9.250;2023-11-21T09:08:40;5.53;;;3.43;;
5454;SDS011;2750;49.050;9.250;2023-11-21T09:13:43;7.60;;;3.80;;
5454;SDS011;2750;49.050;9.250;2023-11-21T09:18:45;4.57;;;3.37;;
5454;SDS011;2750;49.050;9.250;2023-11-21T09:23:46;4.80;;;3.57;;
5454;SDS011;2750;49.050;9.250;2023-11-21T09:28:50;4.23;;;3.50;;
5454;SDS011;2750;49.050;9.250;2023-11-21T09:33:52;3.33;;;3.03;;
5454;SDS011;2750;49.050;9.250;2023-11-21T09:38:53;5.77;;;2.63;;
5454;SDS011;2750;49.050;9.250;2023-11-21T09:43:57;3.83;;;2.93;;
5454;SDS011;2750;49.050;9.250;2023-11-21T09:49:00;3.87;;;2.27;;
5454;SDS011;2750;49.050;9.250;2023-11-21T09:54:07;3.17;;;2.13;;
5454;SDS011;2750;49.050;9.250;2023-11-21T09:59:13;2.53;;;2.33;;
5454;SDS011;2750;49.050;9.250;2023-11-21T10:04:16;3.80;;;3.00;;
5454;SDS011;2750;49.050;9.250;2023-11-21T10:09:17;2.37;;;2.17;;
5454;SDS011;2750;49.050;9.250;2023-11-21T10:14:22;4.93;;;3.13;;
5454;SDS011;2750;49.050;9.250;2023-11-21T10:19:29;5.40;;;3.93;;
5454;SDS011;2750;49.050;9.250;2023-11-21T10:24:32;4.73;;;3.50;;
5454;SDS011;2750;49.050;9.250;2023-11-21T10:29:35;4.10;;;3.70;;
5454;SDS011;2750;49.050;9.250;2023-11-21T10:34:36;3.13;;;2.87;;
5454;SDS011;2750;49.050;9.250;2023-11-21T10:39:38;3.40;;;3.07;;
5454;SDS011;2750;49.050;9.250;2023-11-21T10:44:42;4.40;;;3.57;;
5454;SDS011;2750;49.050;9.250;2023-11-21T10:49:45;3.30;;;3.00;;
5454;SDS011;2750;49.050;9.250;2023-11-21T10:54:49;4.23;;;3.70;;
5454;SDS011;2750;49.050;9.250;2023-11-21T10:59:52;3.93;;;3.60;;
5454;SDS011;2750;49.050;9.250;2023-11-21T11:04:55;3.73;;;3.43;;
5454;SDS011;2750;49.050;9.250;2023-11-21T11:09:59;4.53;;;3.83;;
5454;SDS011;2750;49.050;9.250;2023-11-21T11:15:02;22.50;;;20.80;;
5454;SDS011;2750;49.050;9.250;2023-11-21T11:20:05;31.53;;;29.00;;
5454;SDS011;2750;49.050;9.250;2023-11-21T11:25:14;3.97;;;3.57;;
5454;SDS011;2750;49.050;9.250;2023-11-21T11:30:36;4.10;;;3.57;;
5454;SDS011;2750;49.050;9.250;2023-11-21T11:35:51;3.80;;;3.50;;
5454;SDS011;2750;49.050;9.250;2023-11-21T11:41:00;4.60;;;4.20;;
5454;SDS011;2750;49.050;9.250;2023-11-21T11:46:05;4.40;;;3.60;;
5454;SDS011;2750;49.050;9.250;2023-11-21T11:51:09;3.63;;;3.33;;
5454;SDS011;2750;49.050;9.250;2023-11-21T11:56:24;4.80;;;4.30;;
5454;SDS011;2750;49.050;9.250;2023-11-21T12:01:28;3.80;;;3.50;;
5454;SDS011;2750;49.050;9.250;2023-11-21T12:06:32;4.13;;;3.70;;
5454;SDS011;2750;49.050;9.250;2023-11-21T12:11:36;4.73;;;4.33;;
5454;SDS011;2750;49.050;9.250;2023-11-21T12:16:39;3.57;;;2.87;;
5454;SDS011;2750;49.050;9.250;2023-11-21T12:21:43;3.93;;;3.63;;
5454;SDS011;2750;49.050;9.250;2023-11-21T12:26:45;3.23;;;2.40;;
5454;SDS011;2750;49.050;9.250;2023-11-21T12:31:49;1.80;;;1.70;;
5454;SDS011;2750;49.050;9.250;2023-11-21T12:36:51;5.00;;;4.63;;
5454;SDS011;2750;49.050;9.250;2023-11-21T12:41:54;6.93;;;6.23;;
5454;SDS011;2750;49.050;9.250;2023-11-21T12:46:58;4.87;;;4.30;;
5454;SDS011;2750;49.050;9.250;2023-11-21T12:52:01;2.80;;;1.90;;
5454;SDS011;2750;49.050;9.250;2023-11-21T12:57:04;2.47;;;2.07;;
5454;SDS011;2750;49.050;9.250;2023-11-21T13:02:12;2.27;;;1.70;;
5454;SDS011;2750;49.050;9.250;2023-11-21T13:07:15;2.07;;;1.87;;
5454;SDS011;2750;49.050;9.250;2023-11-21T13:12:17;2.23;;;1.87;;
5454;SDS011;2750;49.050;9.250;2023-11-21T13:17:26;2.77;;;2.07;;
5454;SDS011;2750;49.050;9.250;2023-11-21T13:22:28;2.33;;;1.70;;
5454;SDS011;2750;49.050;9.250;2023-11-21T13:27:31;3.67;;;3.37;;
5454;SDS011;2750;49.050;9.250;2023-11-21T13:32:35;3.07;;;2.87;;
5454;SDS011;2750;49.050;9.250;2023-11-21T13:37:36;3.30;;;2.10;;
5454;SDS011;2750;49.050;9.250;2023-11-21T13:42:37;2.03;;;1.60;;
5454;SDS011;2750;49.050;9.250;2023-11-21T13:47:40;3.10;;;2.50;;
5454;SDS011;2750;49.050;9.250;2023-11-21T13:52:42;3.37;;;3.00;;
5454;SDS011;2750;49.050;9.250;2023-11-21T13:57:43;8.10;;;4.00;;
5454;SDS011;2750;49.050;9.250;2023-11-21T14:02:50;2.70;;;2.47;;
5454;SDS011;2750;49.050;9.250;2023-11-21T14:07:52;2.87;;;2.57;;
5454;SDS011;2750;49.050;9.250;2023-11-21T14:12:53;3.20;;;2.60;;
5454;SDS011;2750;49.050;9.250;2023-11-21T14:17:57;3.40;;;3.10;;
5454;SDS011;2750;49.050;9.250;2023-11-21T14:22:59;3.67;;;2.70;;
5454;SDS011;2750;49.050;9.250;2023-11-21T14:28:01;4.03;;;2.90;;
5454;SDS011;2750;49.050;9.250;2023-11-21T14:33:04;4.63;;;4.10;;
5454;SDS011;2750;49.050;9.250;2023-11-21T14:38:06;6.77;;;4.00;;
5454;SDS011;2750;49.050;9.250;2023-11-21T14:43:07;5.07;;;4.57;;
5454;SDS011;2750;49.050;9.250;2023-11-21T14:48:10;5.13;;;4.37;;
5454;SDS011;2750;49.050;9.250;2023-11-21T14:53:16;5.70;;;5.20;;
5454;SDS011;2750;49.050;9.250;2023-11-21T14:58:37;8.37;;;6.80;;
5454;SDS011;2750;49.050;9.250;2023-11-21T15:03:41;8.03;;;6.97;;
5454;SDS011;2750;49.050;9.250;2023-11-21T15:08:50;8.07;;;5.70;;
5454;SDS011;2750;49.050;9.250;2023-11-21T15:13:57;8.80;;;6.27;;
5454;SDS011;2750;49.050;9.250;2023-11-21T15:19:01;8.80;;;7.90;;
5454;SDS011;2750;49.050;9.250;2023-11-21T15:24:03;8.10;;;6.33;;
5454;SDS011;2750;49.050;9.250;2023-11-21T15:29:06;7.23;;;6.30;;
5454;SDS011;2750;49.050;9.250;2023-11-21T15:34:09;8.37;;;6.37;;
5454;SDS011;2750;49.050;9.250;2023-11-21T15:39:11;7.10;;;5.93;;
5454;SDS011;2750;49.050;9.250;2023-11-21T15:44:12;6.13;;;5.53;;
5454;SDS011;2750;49.050;9.250;2023-11-21T15:49:15;8.13;;;7.30;;
5454;SDS011;2750;49.050;9.250;2023-11-21T15:54:20;6.97;;;5.90;;
5454;SDS011;2750;49.050;9.250;2023-11-21T15:59:21;10.90;;;7.50;;
5454;SDS011;2750;49.050;9.250;2023-11-21T16:04:25;7.67;;;6.93;;
5454;SDS011;2750;49.050;9.250;2023-11-21T16:09:28;8.23;;;6.53;;
5454;SDS011;2750;49.050;9.250;2023-11-21T16:14:30;6.13;;;5.43;;
5454;SDS011;2750;49.050;9.250;2023-11-21T16:19:38;9.43;;;7.17;;
5454;SDS011;2750;49.050;9.250;2023-11-21T16:24:40;6.80;;;4.80;;
5454;SDS011;2750;49.050;9.250;2023-11-21T16:29:41;8.83;;;6.17;;
5454;SDS011;2750;49.050;9.250;2023-11-21T16:34:44;8.97;;;5.77;;
5454;SDS011;2750;49.050;9.250;2023-11-21T16:39:46;7.40;;;5.40;;
5454;SDS011;2750;49.050;9.250;2023-11-21T16:44:48;8.87;;;6.50;;
5454;SDS011;2750;49.050;9.250;2023-11-21T16:49:51;8.93;;;7.17;;
5454;SDS011;2750;49.050;9.250;2023-11-21T16:54:53;8.87;;;7.30;;
5454;SDS011;2750;49.050;9.250;2023-11-21T16:59:55;9.17;;;8.23;;
5454;SDS011;2750;49.050;9.250;2023-11-21T17:04:58;11.27;;;8.80;;
5454;SDS011;2750;49.050;9.250;2023-11-21T17:10:00;9.87;;;6.80;;
5454;SDS011;2750;49.050;9.250;2023-11-21T17:15:03;11.50;;;9.10;;
5454;SDS011;2750;49.050;9.250;2023-11-21T17:20:09;21.53;;;17.10;;
5454;SDS011;2750;49.050;9.250;2023-11-21T17:25:11;14.47;;;11.10;;
5454;SDS011;2750;49.050;9.250;2023-11-21T17:30:12;15.90;;;10.03;;
5454;SDS011;2750;49.050;9.250;2023-11-21T17:35:15;19.70;;;14.43;;
5454;SDS011;2750;49.050;9.250;2023-11-21T17:40:17;20.00;;;16.27;;
5454;SDS011;2750;49.050;9.250;2023-11-21T17:45:19;23.90;;;17.63;;
5454;SDS011;2750;49.050;9.250;2023-11-21T17:50:22;22.77;;;16.43;;
5454;SDS011;2750;49.050;9.250;2023-11-21T17:55:24;25.93;;;18.00;;
5454;SDS011;2750;49.050;9.250;2023-11-21T18:00:26;19.73;;;15.47;;
5454;SDS011;2750;49.050;9.250;2023-11-21T18:05:29;17.87;;;13.90;;
5454;SDS011;2750;49.050;9.250;2023-11-21T18:10:31;18.77;;;16.40;;
5454;SDS011;2750;49.050;9.250;2023-11-21T18:15:33;26.63;;;21.17;;
5454;SDS011;2750;49.050;9.250;2023-11-21T18:20:36;19.20;;;13.27;;
5454;SDS011;2750;49.050;9.250;2023-11-21T18:25:37;14.20;;;12.63;;
5454;SDS011;2750;49.050;9.250;2023-11-21T18:30:39;14.83;;;11.37;;
5454;SDS011;2750;49.050;9.250;2023-11-21T18:35:42;16.20;;;11.97;;
5454;SDS011;2750;49.050;9.250;2023-11-21T18:40:45;16.87;;;13.03;;
5454;SDS011;2750;49.050;9.250;2023-11-21T18:45:46;27.03;;;22.97;;
5454;SDS011;2750;49.050;9.250;2023-11-21T18:50:50;17.30;;;12.33;;
5454;SDS011;2750;49.050;9.250;2023-11-21T18:55:54;11.33;;;10.20;;
5454;SDS011;2750;49.050;9.250;2023-11-21T19:00:56;15.00;;;10.70;;
5454;SDS011;2750;49.050;9.250;2023-11-21T19:05:59;15.43;;;9.30;;
5454;SDS011;2750;49.050;9.250;2023-11-21T19:11:00;12.23;;;8.90;;
5454;SDS011;2750;49.050;9.250;2023-11-21T19:16:02;13.60;;;12.20;;
5454;SDS011;2750;49.050;9.250;2023-11-21T19:21:11;18.40;;;13.47;;
5454;SDS011;2750;49.050;9.250;2023-11-21T19:26:13;18.03;;;13.67;;
5454;SDS011;2750;49.050;9.250;2023-11-21T19:31:15;15.77;;;12.17;;
5454;SDS011;2750;49.050;9.250;2023-11-21T19:36:19;12.03;;;10.23;;
5454;SDS011;2750;49.050;9.250;2023-11-21T19:41:21;15.37;;;10.93;;
5454;SDS011;2750;49.050;9.250;2023-11-21T19:46:23;19.17;;;12.67;;
5454;SDS011;2750;49.050;9.250;2023-11-21T19:51:25;14.50;;;11.57;;
5454;SDS011;2750;49.050;9.250;2023-11-21T19:56:27;22.37;;;15.60;;
5454;SDS011;2750;49.050;9.250;2023-11-21T20:01:29;14.97;;;11.20;;
5454;SDS011;2750;49.050;9.250;2023-11-21T20:06:31;20.10;;;16.63;;
5454;SDS011;2750;49.050;9.250;2023-11-21T20:11:33;17.53;;;14.27;;
5454;SDS011;2750;49.050;9.250;2023-11-21T20:16:38;16.83;;;10.87;;
5454;SDS011;2750;49.050;9.250;2023-11-21T20:21:41;16.50;;;11.17;;
5454;SDS011;2750;49.050;9.250;2023-11-21T20:26:43;15.70;;;10.83;;
5454;SDS011;2750;49.050;9.250;2023-11-21T20:31:45;14.33;;;10.23;;
5454;SDS011;2750;49.050;9.250;2023-11-21T20:36:48;22.47;;;13.40;;
5454;SDS011;2750;49.050;9.250;2023-11-21T20:41:49;22.03;;;14.30;;
5454;SDS011;2750;49.050;9.250;2023-11-21T20:46:51;17.67;;;11.60;;
5454;SDS011;2750;49.050;9.250;2023-11-21T20:51:54;15.87;;;12.43;;
5454;SDS011;2750;49.050;9.250;2023-11-21T20:56:56;16.33;;;10.87;;
5454;SDS011;2750;49.050;9.250;2023-11-21T21:01:57;14.37;;;9.17;;
5454;SDS011;2750;49.050;9.250;2023-11-21T21:07:00;16.83;;;10.33;;
5454;SDS011;2750;49.050;9.250;2023-11-21T21:12:02;16.23;;;10.53;;
5454;SDS011;2750;49.050;9.250;2023-11-21T21:17:03;18.03;;;11.37;;
5454;SDS011;2750;49.050;9.250;2023-11-21T21:22:07;15.23;;;11.03;;
5454;SDS011;2750;49.050;9.250;2023-11-21T21:27:08;17.80;;;10.73;;
5454;SDS011;2750;49.050;9.250;2023-11-21T21:32:10;19.77;;;11.03;;
5454;SDS011;2750;49.050;9.250;2023-11-21T21:37:12;16.00;;;10.23;;
5454;SDS011;2750;49.050;9.250;2023-11-21T21:42:14;16.13;;;10.93;;
5454;SDS011;2750;49.050;9.250;2023-11-21T21:47:16;15.13;;;10.67;;
5454;SDS011;2750;49.050;9.250;2023-11-21T21:52:19;15.57;;;9.50;;
5454;SDS011;2750;49.050;9.250;2023-11-21T21:57:20;23.40;;;14.17;;
5454;SDS011;2750;49.050;9.250;2023-11-21T22:02:21;19.60;;;12.43;;
5454;SDS011;2750;49.050;9.250;2023-11-21T22:07:24;15.87;;;11.13;;
5454;SDS011;2750;49.050;9.250;2023-11-21T22:12:26;18.07;;;11.20;;
5454;SDS011;2750;49.050;9.250;2023-11-21T22:17:27;15.43;;;10.43;;
5454;SDS011;2750;49.050;9.250;2023-11-21T22:22:30;20.37;;;12.77;;
5454;SDS011;2750;49.050;9.250;2023-11-21T22:27:33;19.43;;;11.93;;
5454;SDS011;2750;49.050;9.250;2023-11-21T22:32:34;21.77;;;11.93;;
5454;SDS011;2750;49.050;9.250;2023-11-21T22:37:37;21.73;;;14.73;;
5454;SDS011;2750;49.050;9.250;2023-11-21T22:42:39;23.23;;;14.03;;
5454;SDS011;2750;49.050;9.250;2023-11-21T22:47:41;21.80;;;14.67;;
5454;SDS011;2750;49.050;9.250;2023-11-21T22:52:43;6.73;;;4.63;;
5454;SDS011;2750;49.050;9.250;2023-11-21T22:57:46;5.77;;;3.30;;
5454;SDS011;2750;49.050;9.250;2023-11-21T23:02:47;5.67;;;3.47;;
5454;SDS011;2750;49.050;9.250;2023-11-21T23:07:50;6.07;;;4.03;;
5454;SDS011;2750;49.050;9.250;2023-11-21T23:12:52;3.90;;;3.47;;
5454;SDS011;2750;49.050;9.250;2023-11-21T23:17:55;6.30;;;4.60;;
5454;SDS011;2750;49.050;9.250;2023-11-21T23:22:58;7.83;;;5.77;;
5454;SDS011;2750;49.050;9.250;2023-11-21T23:28:00;6.83;;;5.00;;
5454;SDS011;2750;49.050;9.250;2023-11-21T23:33:01;9.03;;;6.00;;
5454;SDS011;2750;49.050;9.250;2023-11-21T23:38:05;7.13;;;6.23;;
5454;SDS011;2750;49.050;9.250;2023-11-21T23:43:07;7.30;;;4.93;;
5454;SDS011;2750;49.050;9.250;2023-11-21T23:48:08;5.67;;;4.23;;
5454;SDS011;2750;49.050;9.250;2023-11-21T23:53:11;8.20;;;6.03;;
5454;SDS011;2750;49.050;9.250;2023-11-21T23:58:12;7.07;;;5.13;;
